Terminal Aerodrome Forecast
Issued by NWS Charleston, WV

Home | Current Version | Previous Version | Text Only | Print | Product List | Glossary On
Versions: 1 2 3 4 5 6 7 8 9 10 11 12 13 14 15 16 17 18
000
FTUS41 KRLX 221700
TAFPKB
TAF
KPKB 221739Z 2218/2318 17004KT P6SM SCT045
     FM222000 18005KT P6SM BKN045
     FM230800 15007KT P6SM BKN030
     FM231500 20009G14KT P6SM BKN040=

USA.gov is the U.S. government's official web portal to all federal, state and local government web resources and services.